createdAt,value
2023-06-22T00:00:23.608Z,2.72
2023-06-22T00:01:24.731Z,2.64
2023-06-22T00:02:23.827Z,2.71
2023-06-22T00:03:23.878Z,2.68
2023-06-22T00:04:24.871Z,2.62
2023-06-22T00:05:23.928Z,2.68
2023-06-22T00:06:24.979Z,2.65
2023-06-22T00:07:24.051Z,2.61
2023-06-22T00:08:25.127Z,2.64
2023-06-22T00:09:25.195Z,2.61
2023-06-22T00:10:24.268Z,2.59
2023-06-22T00:11:24.298Z,2.60
2023-06-22T00:12:24.359Z,2.60
2023-06-22T00:13:25.496Z,2.52
2023-06-22T00:14:24.493Z,2.62
2023-06-22T00:15:24.578Z,2.67
2023-06-22T00:16:24.625Z,2.60
2023-06-22T00:17:24.717Z,2.57
2023-06-22T00:18:24.751Z,2.56
2023-06-22T00:19:25.804Z,2.56
2023-06-22T00:20:26.103Z,2.56
2023-06-22T00:21:25.963Z,2.56
2023-06-22T00:22:24.970Z,2.57
2023-06-22T00:23:26.037Z,2.59
2023-06-22T00:24:26.102Z,2.56
2023-06-22T00:25:25.191Z,2.58
2023-06-22T00:26:26.233Z,2.55
2023-06-22T00:27:25.300Z,2.52
2023-06-22T00:28:26.351Z,2.54
2023-06-22T00:29:26.408Z,2.57
2023-06-22T00:30:26.732Z,2.54
2023-06-22T00:31:25.545Z,2.53
2023-06-22T00:32:26.611Z,2.49
2023-06-22T00:33:26.644Z,2.50
2023-06-22T00:34:25.758Z,2.53
2023-06-22T00:35:26.782Z,2.52
2023-06-22T00:36:25.849Z,2.51
2023-06-22T00:37:25.910Z,2.51
2023-06-22T00:38:26.964Z,2.49
2023-06-22T00:39:26.035Z,2.52
2023-06-22T00:40:27.436Z,2.45
2023-06-22T00:41:27.152Z,2.48
2023-06-22T00:42:26.227Z,2.50
2023-06-22T00:43:27.284Z,2.52
2023-06-22T00:44:26.334Z,2.43
2023-06-22T00:45:27.417Z,2.48
2023-06-22T00:46:27.458Z,2.46
2023-06-22T00:47:26.541Z,2.41
2023-06-22T00:48:26.566Z,2.44
2023-06-22T00:49:27.654Z,2.45
2023-06-22T00:50:26.825Z,2.38
2023-06-22T00:51:27.794Z,2.40
2023-06-22T00:52:27.834Z,2.37
2023-06-22T00:53:26.880Z,2.36
2023-06-22T00:54:27.937Z,2.39
2023-06-22T00:55:28.015Z,2.43
2023-06-22T00:56:27.077Z,2.47
2023-06-22T00:57:27.127Z,2.37
2023-06-22T00:58:27.196Z,2.41
2023-06-22T00:59:27.347Z,2.41
2023-06-22T01:00:28.822Z,2.42
2023-06-22T01:01:27.431Z,2.40
2023-06-22T01:02:28.545Z,2.41
2023-06-22T01:03:27.508Z,2.41
2023-06-22T01:04:28.538Z,2.34
2023-06-22T01:05:27.601Z,2.33
2023-06-22T01:06:28.707Z,2.34
2023-06-22T01:07:28.729Z,2.38
2023-06-22T01:08:27.793Z,2.32
2023-06-22T01:09:28.851Z,2.31
2023-06-22T01:10:29.269Z,2.31
2023-06-22T01:11:28.973Z,2.31
2023-06-22T01:12:29.041Z,2.32
2023-06-22T01:13:29.095Z,2.27
2023-06-22T01:14:29.153Z,2.27
2023-06-22T01:15:28.229Z,2.30
2023-06-22T01:16:28.293Z,2.33
2023-06-22T01:17:28.388Z,2.29
2023-06-22T01:18:29.409Z,2.34
2023-06-22T01:19:29.456Z,2.24
2023-06-22T01:20:29.814Z,2.32
2023-06-22T01:21:29.597Z,2.23
2023-06-22T01:22:29.677Z,2.28
2023-06-22T01:23:28.717Z,2.26
2023-06-22T01:24:29.782Z,2.24
2023-06-22T01:25:29.848Z,2.29
2023-06-22T01:26:28.922Z,2.29
2023-06-22T01:27:28.957Z,2.22
2023-06-22T01:28:30.026Z,2.21
2023-06-22T01:29:30.077Z,2.22
2023-06-22T01:30:30.412Z,2.22
2023-06-22T01:31:30.227Z,2.20
2023-06-22T01:32:30.244Z,2.27
2023-06-22T01:33:29.299Z,2.24
2023-06-22T01:34:29.379Z,2.24
2023-06-22T01:35:30.421Z,2.25
2023-06-22T01:36:30.491Z,2.20
2023-06-22T01:37:29.552Z,2.20
2023-06-22T01:38:30.696Z,2.22
2023-06-22T01:39:29.666Z,2.22
2023-06-22T01:40:31.050Z,2.19
2023-06-22T01:41:30.773Z,2.25
2023-06-22T01:42:30.837Z,2.15
2023-06-22T01:43:29.896Z,2.17
2023-06-22T01:44:30.981Z,2.20
2023-06-22T01:45:31.024Z,2.16
2023-06-22T01:46:30.084Z,2.18
2023-06-22T01:47:31.227Z,2.18
2023-06-22T01:48:31.217Z,2.14
2023-06-22T01:49:31.369Z,2.19
2023-06-22T01:50:31.589Z,2.12
2023-06-22T01:51:30.392Z,2.13
2023-06-22T01:52:31.465Z,2.15
2023-06-22T01:53:31.521Z,2.19
2023-06-22T01:54:30.610Z,2.13
2023-06-22T01:55:31.639Z,2.13
2023-06-22T01:56:31.688Z,2.08
2023-06-22T01:57:30.757Z,2.15
2023-06-22T01:58:30.823Z,2.12
2023-06-22T01:59:31.883Z,2.10
2023-06-22T02:00:31.120Z,2.17
2023-06-22T02:01:31.027Z,2.10
2023-06-22T02:02:32.198Z,2.10
2023-06-22T02:03:32.285Z,2.07
2023-06-22T02:04:31.181Z,2.10
2023-06-22T02:05:32.267Z,2.08
2023-06-22T02:06:32.314Z,2.09
2023-06-22T02:07:32.386Z,2.11
2023-06-22T02:08:32.445Z,2.08
2023-06-22T02:09:32.502Z,2.09
2023-06-22T02:10:32.592Z,2.07
2023-06-22T02:11:32.625Z,2.08
2023-06-22T02:12:32.693Z,2.06
2023-06-22T02:13:32.765Z,2.07
2023-06-22T02:14:33.710Z,2.04
2023-06-22T02:15:32.878Z,2.09
2023-06-22T02:16:33.698Z,2.03
2023-06-22T02:17:32.997Z,2.02
2023-06-22T02:18:33.068Z,2.03
2023-06-22T02:19:33.120Z,2.05
2023-06-22T02:20:32.256Z,2.01
2023-06-22T02:21:33.252Z,2.03
2023-06-22T02:22:32.305Z,2.03
2023-06-22T02:23:33.366Z,1.95
2023-06-22T02:24:33.411Z,2.01
2023-06-22T02:25:33.504Z,1.99
2023-06-22T02:26:33.643Z,1.99
2023-06-22T02:27:33.591Z,2.03
2023-06-22T02:28:32.668Z,2.03
2023-06-22T02:29:33.748Z,1.99
2023-06-22T02:30:33.851Z,1.99
2023-06-22T02:31:32.894Z,1.99
2023-06-22T02:32:33.945Z,1.98
2023-06-22T02:33:32.980Z,1.93
2023-06-22T02:34:34.032Z,2.00
2023-06-22T02:35:34.120Z,2.00
2023-06-22T02:36:33.176Z,1.97
2023-06-22T02:37:34.239Z,1.96
2023-06-22T02:38:33.297Z,1.94
2023-06-22T02:39:34.360Z,1.92
2023-06-22T02:40:34.427Z,1.92
2023-06-22T02:41:33.478Z,1.95
2023-06-22T02:42:33.560Z,1.96
2023-06-22T02:43:34.583Z,1.96
2023-06-22T02:44:34.664Z,1.90
2023-06-22T02:45:34.749Z,1.92
2023-06-22T02:46:34.781Z,1.93
2023-06-22T02:47:34.852Z,1.91
2023-06-22T02:48:34.911Z,1.90
2023-06-22T02:49:34.969Z,1.93
2023-06-22T02:50:35.044Z,1.88
2023-06-22T02:51:34.099Z,1.89
2023-06-22T02:52:34.147Z,1.85
2023-06-22T02:53:34.222Z,1.88
2023-06-22T02:54:34.279Z,1.89
2023-06-22T02:55:35.395Z,1.91
2023-06-22T02:56:35.425Z,1.84
2023-06-22T02:57:35.491Z,1.86
2023-06-22T02:58:35.572Z,1.86
2023-06-22T02:59:35.628Z,1.89
2023-06-22T03:00:35.713Z,1.87
2023-06-22T03:01:35.822Z,1.79
2023-06-22T03:02:35.902Z,1.86
2023-06-22T03:03:34.993Z,1.87
2023-06-22T03:04:35.926Z,1.91
2023-06-22T03:05:36.006Z,1.86
2023-06-22T03:06:36.042Z,1.85
2023-06-22T03:07:35.120Z,1.78
2023-06-22T03:08:35.173Z,1.83
2023-06-22T03:09:35.254Z,1.86
2023-06-22T03:10:35.320Z,1.81
2023-06-22T03:11:35.364Z,1.77
2023-06-22T03:12:35.415Z,1.84
2023-06-22T03:13:36.483Z,1.82
2023-06-22T03:14:35.561Z,1.83
2023-06-22T03:15:35.624Z,1.80
2023-06-22T03:16:36.683Z,1.79
2023-06-22T03:17:35.754Z,1.78
2023-06-22T03:18:35.777Z,1.83
2023-06-22T03:19:36.858Z,1.79
2023-06-22T03:20:36.918Z,1.79
2023-06-22T03:21:37.027Z,1.81
2023-06-22T03:22:37.058Z,1.76
2023-06-22T03:23:37.114Z,1.77
2023-06-22T03:24:37.159Z,1.80
2023-06-22T03:25:37.263Z,1.78
2023-06-22T03:26:37.295Z,1.80
2023-06-22T03:27:36.362Z,1.79
2023-06-22T03:28:36.427Z,1.78
2023-06-22T03:29:37.514Z,1.78
2023-06-22T03:30:36.545Z,1.77
2023-06-22T03:31:36.629Z,1.77
2023-06-22T03:32:37.695Z,1.75
2023-06-22T03:33:36.742Z,1.74
2023-06-22T03:34:37.784Z,1.76
2023-06-22T03:35:36.829Z,1.76
2023-06-22T03:36:36.886Z,1.74
2023-06-22T03:37:37.955Z,1.73
2023-06-22T03:38:37.016Z,1.76
2023-06-22T03:39:37.085Z,1.76
2023-06-22T03:40:38.165Z,1.75
2023-06-22T03:41:38.231Z,1.73
2023-06-22T03:42:37.329Z,1.72
2023-06-22T03:43:38.338Z,1.76
2023-06-22T03:44:37.385Z,1.76
2023-06-22T03:45:38.482Z,1.74
2023-06-22T03:46:38.625Z,1.72
2023-06-22T03:47:38.577Z,1.76
2023-06-22T03:48:37.628Z,1.71
2023-06-22T03:49:38.711Z,1.70
2023-06-22T03:50:38.773Z,1.71
2023-06-22T03:51:37.824Z,1.73
2023-06-22T03:52:38.918Z,1.75
2023-06-22T03:53:38.945Z,1.74
2023-06-22T03:54:38.016Z,1.71
2023-06-22T03:55:38.091Z,1.70
2023-06-22T03:56:39.137Z,1.71
2023-06-22T03:57:38.214Z,1.66
2023-06-22T03:58:38.275Z,1.72
2023-06-22T03:59:39.348Z,1.70
2023-06-22T04:00:39.392Z,1.73
2023-06-22T04:01:38.493Z,1.70
2023-06-22T04:02:39.570Z,1.72
2023-06-22T04:03:38.624Z,1.69
2023-06-22T04:04:39.773Z,1.71
2023-06-22T04:05:38.725Z,1.68
2023-06-22T04:06:39.787Z,1.69
2023-06-22T04:07:39.837Z,1.67
2023-06-22T04:08:39.900Z,1.68
2023-06-22T04:09:39.968Z,1.69
2023-06-22T04:10:40.028Z,1.69
2023-06-22T04:11:39.085Z,1.63
2023-06-22T04:12:40.134Z,1.69
2023-06-22T04:13:39.197Z,1.64
2023-06-22T04:14:39.277Z,1.64
2023-06-22T04:15:39.329Z,1.70
2023-06-22T04:16:40.405Z,1.67
2023-06-22T04:17:39.502Z,1.66
2023-06-22T04:18:40.528Z,1.64
2023-06-22T04:19:40.580Z,1.65
2023-06-22T04:20:40.637Z,1.66
2023-06-22T04:21:39.725Z,1.63
2023-06-22T04:22:40.772Z,1.68
2023-06-22T04:23:40.852Z,1.63
2023-06-22T04:24:40.894Z,1.66
2023-06-22T04:25:40.974Z,1.62
2023-06-22T04:26:40.013Z,1.67
2023-06-22T04:27:41.123Z,1.66
2023-06-22T04:28:41.145Z,1.64
2023-06-22T04:29:41.211Z,1.64
2023-06-22T04:30:41.274Z,1.60
2023-06-22T04:31:41.337Z,1.61
2023-06-22T04:32:41.440Z,1.64
2023-06-22T04:33:41.496Z,1.65
2023-06-22T04:34:40.520Z,1.62
2023-06-22T04:35:40.579Z,1.59
2023-06-22T04:36:40.655Z,1.62
2023-06-22T04:37:40.733Z,1.64
2023-06-22T04:38:40.752Z,1.59
2023-06-22T04:39:40.804Z,1.61
2023-06-22T04:40:41.873Z,1.60
2023-06-22T04:41:40.931Z,1.63
2023-06-22T04:42:40.989Z,1.62
2023-06-22T04:43:42.047Z,1.60
2023-06-22T04:44:42.094Z,1.65
2023-06-22T04:45:41.159Z,1.59
2023-06-22T04:46:42.222Z,1.63
2023-06-22T04:47:41.291Z,1.60
2023-06-22T04:48:42.328Z,1.61
2023-06-22T04:49:41.684Z,1.60
2023-06-22T04:50:41.437Z,1.59
2023-06-22T04:51:41.512Z,1.60
2023-06-22T04:52:42.590Z,1.58
2023-06-22T04:53:42.633Z,1.58
2023-06-22T04:54:41.689Z,1.58
2023-06-22T04:55:41.746Z,1.59
2023-06-22T04:56:42.802Z,1.58
2023-06-22T04:57:42.857Z,1.58
2023-06-22T04:58:42.907Z,1.58
2023-06-22T04:59:41.970Z,1.56
2023-06-22T05:00:42.044Z,1.58
2023-06-22T05:01:43.083Z,1.54
2023-06-22T05:02:43.226Z,1.56
2023-06-22T05:03:43.488Z,1.57
2023-06-22T05:04:43.409Z,1.56
2023-06-22T05:05:43.353Z,1.56
2023-06-22T05:06:42.394Z,1.57
2023-06-22T05:07:43.433Z,1.57
2023-06-22T05:08:43.507Z,1.55
2023-06-22T05:09:42.568Z,1.56
2023-06-22T05:10:55.326Z,1.52
2023-06-22T05:11:43.628Z,1.53
2023-06-22T05:12:43.614Z,1.53
2023-06-22T05:13:43.601Z,1.54
2023-06-22T05:14:42.603Z,1.57
2023-06-22T05:15:42.584Z,1.56
2023-06-22T05:16:42.581Z,1.54
2023-06-22T05:17:42.619Z,1.52
2023-06-22T05:18:43.624Z,1.52
2023-06-22T05:19:43.564Z,1.53
2023-06-22T05:20:42.559Z,1.52
2023-06-22T05:21:43.569Z,1.54
2023-06-22T05:22:43.547Z,1.53
2023-06-22T05:23:43.526Z,1.53
2023-06-22T05:24:42.515Z,1.53
2023-06-22T05:25:42.548Z,1.54
2023-06-22T05:26:42.521Z,1.52
2023-06-22T05:27:43.518Z,1.51
2023-06-22T05:28:42.508Z,1.50
2023-06-22T05:29:42.491Z,1.50
2023-06-22T05:30:43.508Z,1.50
2023-06-22T05:31:43.483Z,1.51
2023-06-22T05:32:43.492Z,1.51
2023-06-22T05:33:43.475Z,1.50
2023-06-22T05:34:43.457Z,1.50
2023-06-22T05:35:42.467Z,1.49
2023-06-22T05:36:42.443Z,1.46
2023-06-22T05:37:43.490Z,1.50
2023-06-22T05:38:43.495Z,1.49
2023-06-22T05:39:42.531Z,1.47
2023-06-22T05:40:43.578Z,1.46
2023-06-22T05:41:43.644Z,1.49
2023-06-22T05:42:42.678Z,1.48
2023-06-22T05:43:42.733Z,1.49
2023-06-22T05:44:43.803Z,1.49
2023-06-22T05:45:42.877Z,1.51
2023-06-22T05:46:43.882Z,1.49
2023-06-22T05:47:43.975Z,1.47
2023-06-22T05:48:43.985Z,1.46
2023-06-22T05:49:44.035Z,1.51
2023-06-22T05:50:43.107Z,1.48
2023-06-22T05:51:44.156Z,1.45
2023-06-22T05:52:43.192Z,1.48
2023-06-22T05:53:43.281Z,1.47
2023-06-22T05:54:44.309Z,1.47
2023-06-22T05:55:44.350Z,1.47
2023-06-22T05:56:44.444Z,1.47
2023-06-22T05:57:44.466Z,1.45
2023-06-22T05:58:43.516Z,1.47
2023-06-22T05:59:44.554Z,1.47
2023-06-22T06:00:43.595Z,1.44
2023-06-22T06:01:43.885Z,1.45
2023-06-22T06:02:45.004Z,1.44
2023-06-22T06:03:43.797Z,1.44
2023-06-22T06:04:44.801Z,1.48
2023-06-22T06:05:43.857Z,1.46
2023-06-22T06:06:44.924Z,1.46
2023-06-22T06:07:44.984Z,1.49
2023-06-22T06:08:45.002Z,1.57
2023-06-22T06:09:44.063Z,1.57
2023-06-22T06:10:44.088Z,1.64
2023-06-22T06:11:45.265Z,1.69
2023-06-22T06:12:45.184Z,1.70
2023-06-22T06:13:45.237Z,1.77
2023-06-22T06:14:45.260Z,1.79
2023-06-22T06:15:45.311Z,1.81
2023-06-22T06:16:45.346Z,1.82
2023-06-22T06:17:44.388Z,1.83
2023-06-22T06:18:44.388Z,1.83
2023-06-22T06:19:45.411Z,1.80
2023-06-22T06:20:45.436Z,1.91
2023-06-22T06:21:44.475Z,1.85
2023-06-22T06:22:45.474Z,1.97
2023-06-22T06:23:45.504Z,2.06
2023-06-22T06:24:45.540Z,2.08
2023-06-22T06:25:45.621Z,2.08
2023-06-22T06:26:44.677Z,2.13
2023-06-22T06:27:45.602Z,2.13
2023-06-22T06:28:44.640Z,2.18
2023-06-22T06:29:44.675Z,2.15
2023-06-22T06:30:44.700Z,2.13
2023-06-22T06:31:45.812Z,2.15
2023-06-22T06:32:44.796Z,2.15
2023-06-22T06:33:45.820Z,2.17
2023-06-22T06:34:45.839Z,2.17
2023-06-22T06:35:45.857Z,2.13
2023-06-22T06:36:45.886Z,2.19
2023-06-22T06:37:45.905Z,2.18
2023-06-22T06:38:45.931Z,2.15
2023-06-22T06:39:45.974Z,2.20
2023-06-22T06:40:45.988Z,2.23
2023-06-22T06:41:46.062Z,2.23
2023-06-22T06:42:46.055Z,2.20
2023-06-22T06:43:45.067Z,2.23
2023-06-22T06:44:45.091Z,2.27
2023-06-22T06:45:45.205Z,2.29
2023-06-22T06:46:46.230Z,2.30
2023-06-22T06:47:45.253Z,2.29
2023-06-22T06:48:46.195Z,2.35
2023-06-22T06:49:46.233Z,2.36
2023-06-22T06:50:46.255Z,2.34
2023-06-22T06:51:46.330Z,2.35
2023-06-22T06:52:46.298Z,2.41
2023-06-22T06:53:45.315Z,2.39
2023-06-22T06:54:46.329Z,2.35
2023-06-22T06:55:46.365Z,2.37
2023-06-22T06:56:45.915Z,2.36
2023-06-22T06:57:45.466Z,2.32
2023-06-22T06:58:46.707Z,2.33
2023-06-22T06:59:46.453Z,2.30
2023-06-22T07:00:46.465Z,2.30
2023-06-22T07:01:45.660Z,2.33
2023-06-22T07:02:46.686Z,2.38
2023-06-22T07:03:45.534Z,2.28
2023-06-22T07:04:46.601Z,2.39
2023-06-22T07:05:45.561Z,2.35
2023-06-22T07:06:45.591Z,2.34
2023-06-22T07:07:45.604Z,2.31
2023-06-22T07:08:46.622Z,2.32
2023-06-22T07:09:46.633Z,2.31
2023-06-22T07:10:45.668Z,2.26
2023-06-22T07:11:46.700Z,2.23
2023-06-22T07:12:46.717Z,2.33
2023-06-22T07:13:46.760Z,2.30
2023-06-22T07:14:46.752Z,2.32
2023-06-22T07:15:46.749Z,2.33
2023-06-22T07:16:46.780Z,2.31
2023-06-22T07:17:46.934Z,2.31
2023-06-22T07:18:46.818Z,2.35
2023-06-22T07:19:46.833Z,2.35
2023-06-22T07:20:46.860Z,2.44
2023-06-22T07:21:45.878Z,2.41
2023-06-22T07:22:46.033Z,2.43
2023-06-22T07:23:46.920Z,2.47
2023-06-22T07:24:46.928Z,2.46
2023-06-22T07:25:45.938Z,2.47
2023-06-22T07:26:46.965Z,2.43
2023-06-22T07:27:46.985Z,2.40
2023-06-22T07:28:46.000Z,2.38
2023-06-22T07:29:46.209Z,2.38
2023-06-22T07:30:47.101Z,2.40
2023-06-22T07:31:47.231Z,2.39
2023-06-22T07:32:47.150Z,2.37
2023-06-22T07:33:47.081Z,2.41
2023-06-22T07:34:47.090Z,2.45
2023-06-22T07:35:47.111Z,2.37
2023-06-22T07:36:46.143Z,2.42
2023-06-22T07:37:46.144Z,2.41
2023-06-22T07:38:47.183Z,2.39
2023-06-22T07:39:47.202Z,2.44
2023-06-22T07:40:46.201Z,2.42
2023-06-22T07:41:47.260Z,2.46
2023-06-22T07:42:47.231Z,2.42
2023-06-22T07:43:47.265Z,2.41
2023-06-22T07:44:46.242Z,2.40
2023-06-22T07:45:47.466Z,2.41
2023-06-22T07:46:46.357Z,2.44
2023-06-22T07:47:47.337Z,2.43
2023-06-22T07:48:47.303Z,2.47
2023-06-22T07:49:46.310Z,2.54
2023-06-22T07:50:47.349Z,2.59
2023-06-22T07:51:47.873Z,2.61
2023-06-22T07:52:47.386Z,2.59
2023-06-22T07:53:47.396Z,2.70
2023-06-22T07:54:47.395Z,2.68
2023-06-22T07:55:49.821Z,2.66
2023-06-22T07:56:47.418Z,2.84
2023-06-22T07:57:47.420Z,2.74
2023-06-22T07:58:46.390Z,2.85
2023-06-22T07:59:47.390Z,2.85
2023-06-22T08:00:47.390Z,2.86
2023-06-22T08:01:46.517Z,2.76
2023-06-22T08:02:47.640Z,2.75
2023-06-22T08:03:47.447Z,2.70
2023-06-22T08:04:47.369Z,2.80
2023-06-22T08:05:46.354Z,2.81
2023-06-22T08:06:46.351Z,2.75
2023-06-22T08:07:48.579Z,2.69
2023-06-22T08:08:46.582Z,2.75
2023-06-22T08:09:47.603Z,2.59
2023-06-22T08:10:47.606Z,2.40
2023-06-22T08:11:47.638Z,2.43
2023-06-22T08:12:47.635Z,2.32
2023-06-22T08:13:47.636Z,2.26
2023-06-22T08:14:47.633Z,2.36
2023-06-22T08:15:47.985Z,2.40
2023-06-22T08:16:47.625Z,2.50
2023-06-22T08:17:46.995Z,2.49
2023-06-22T08:18:46.605Z,2.24
2023-06-22T08:19:47.594Z,2.18
2023-06-22T08:20:47.596Z,2.08
2023-06-22T08:21:47.597Z,2.05
2023-06-22T08:22:47.576Z,1.93
2023-06-22T08:23:47.577Z,1.90
2023-06-22T08:24:47.576Z,1.96
2023-06-22T08:25:46.583Z,1.97
2023-06-22T08:26:46.567Z,2.00
2023-06-22T08:27:47.562Z,1.97
2023-06-22T08:28:49.054Z,1.91
2023-06-22T08:29:47.525Z,1.91
2023-06-22T08:30:47.529Z,1.93
2023-06-22T08:31:47.574Z,1.93
2023-06-22T08:32:46.551Z,1.94
2023-06-22T08:33:49.818Z,1.90
2023-06-22T08:34:47.501Z,1.91
2023-06-22T08:35:47.564Z,1.88
2023-06-22T08:36:47.496Z,1.84
2023-06-22T08:37:46.470Z,1.80
2023-06-22T08:38:47.380Z,1.73
2023-06-22T08:39:47.458Z,1.71
2023-06-22T08:40:47.441Z,1.60
2023-06-22T08:41:47.473Z,1.57
2023-06-22T08:42:47.897Z,1.58
2023-06-22T08:43:46.420Z,1.54
2023-06-22T08:44:46.410Z,1.56
2023-06-22T08:45:47.431Z,1.56
2023-06-22T08:46:47.740Z,1.62
2023-06-22T08:47:47.460Z,1.63
2023-06-22T08:48:46.382Z,1.61
2023-06-22T08:49:47.441Z,1.55
2023-06-22T08:50:47.382Z,1.59
2023-06-22T08:51:46.383Z,1.58
2023-06-22T08:52:46.363Z,1.58
2023-06-22T08:53:46.419Z,1.56
2023-06-22T08:54:46.363Z,1.56
2023-06-22T08:55:46.369Z,1.51
2023-06-22T08:56:46.344Z,1.48
2023-06-22T08:57:47.410Z,1.44
2023-06-22T08:58:47.334Z,1.44
2023-06-22T08:59:47.330Z,1.43
2023-06-22T09:00:47.328Z,1.48
2023-06-22T09:01:46.319Z,1.48
2023-06-22T09:02:46.624Z,1.44
2023-06-22T09:03:47.441Z,1.48
2023-06-22T09:04:47.426Z,1.40
2023-06-22T09:05:47.356Z,1.31
2023-06-22T09:06:47.297Z,1.24
2023-06-22T09:07:47.470Z,1.24
2023-06-22T09:08:47.278Z,1.23
2023-06-22T09:09:46.292Z,1.22
2023-06-22T09:10:47.259Z,1.19
2023-06-22T09:11:47.255Z,1.20
2023-06-22T09:12:46.249Z,1.22
2023-06-22T09:13:47.236Z,1.23
2023-06-22T09:14:47.257Z,1.22
2023-06-22T09:15:47.231Z,1.21
2023-06-22T09:16:47.215Z,1.34
2023-06-22T09:17:46.335Z,1.38
2023-06-22T09:18:47.205Z,1.32
2023-06-22T09:19:47.218Z,1.36
2023-06-22T09:20:47.210Z,1.29
2023-06-22T09:21:47.208Z,1.30
2023-06-22T09:22:47.185Z,1.29
2023-06-22T09:23:46.164Z,1.26
2023-06-22T09:24:46.162Z,1.26
2023-06-22T09:25:47.155Z,1.25
2023-06-22T09:26:46.162Z,1.33
2023-06-22T09:27:46.139Z,1.33
2023-06-22T09:28:46.141Z,1.36
2023-06-22T09:29:46.120Z,1.35
2023-06-22T09:30:47.136Z,1.39
2023-06-22T09:31:46.143Z,1.42
2023-06-22T09:32:47.154Z,1.39
2023-06-22T09:33:46.118Z,1.43
2023-06-22T09:34:46.105Z,1.44
2023-06-22T09:35:47.094Z,1.48
2023-06-22T09:36:47.078Z,1.46
2023-06-22T09:37:47.103Z,1.52
2023-06-22T09:38:47.074Z,1.52
2023-06-22T09:39:46.052Z,1.53
2023-06-22T09:40:47.060Z,1.55
2023-06-22T09:41:46.077Z,1.49
2023-06-22T09:42:47.059Z,1.48
2023-06-22T09:43:47.052Z,1.42
2023-06-22T09:44:46.053Z,1.40
2023-06-22T09:45:47.037Z,1.43
2023-06-22T09:46:47.052Z,1.46
2023-06-22T09:47:47.453Z,1.45
2023-06-22T09:48:47.033Z,1.42
2023-06-22T09:49:48.450Z,1.45
2023-06-22T09:50:46.036Z,1.50
2023-06-22T09:51:47.023Z,1.41
2023-06-22T09:52:48.595Z,1.43
2023-06-22T09:53:47.017Z,1.43
2023-06-22T09:54:46.996Z,1.43
2023-06-22T09:55:47.213Z,1.44
2023-06-22T09:56:46.982Z,1.44
2023-06-22T09:57:47.008Z,1.44
2023-06-22T09:58:45.977Z,1.47
2023-06-22T09:59:46.267Z,1.49
2023-06-22T10:00:46.956Z,1.54
2023-06-22T10:01:46.951Z,1.51
2023-06-22T10:02:47.095Z,1.49
2023-06-22T10:03:46.132Z,1.49
2023-06-22T10:04:47.168Z,1.52
2023-06-22T10:05:47.330Z,1.47
2023-06-22T10:06:45.926Z,1.43
2023-06-22T10:07:45.990Z,1.39
2023-06-22T10:08:45.900Z,1.39
2023-06-22T10:09:45.912Z,1.43
2023-06-22T10:10:46.879Z,1.47
2023-06-22T10:11:46.898Z,1.46
2023-06-22T10:12:46.886Z,1.52
2023-06-22T10:13:46.855Z,1.46
2023-06-22T10:14:46.857Z,1.50
2023-06-22T10:15:45.842Z,1.49
2023-06-22T10:16:45.852Z,1.54
2023-06-22T10:17:45.870Z,1.52
2023-06-22T10:18:45.819Z,1.55
2023-06-22T10:19:46.858Z,1.60
2023-06-22T10:20:45.809Z,1.59
2023-06-22T10:21:46.799Z,1.62
2023-06-22T10:22:46.831Z,1.62
2023-06-22T10:23:46.808Z,1.65
2023-06-22T10:24:45.828Z,1.59
2023-06-22T10:25:45.827Z,1.60
2023-06-22T10:26:46.784Z,1.56
2023-06-22T10:27:46.784Z,1.62
2023-06-22T10:28:45.763Z,1.58
2023-06-22T10:29:45.755Z,1.59
2023-06-22T10:30:46.762Z,1.58
2023-06-22T10:31:45.726Z,1.59
2023-06-22T10:32:46.789Z,1.60
2023-06-22T10:33:46.725Z,1.62
2023-06-22T10:34:46.744Z,1.57
2023-06-22T10:35:46.776Z,1.57
2023-06-22T10:36:46.797Z,1.49
2023-06-22T10:37:46.832Z,1.39
2023-06-22T10:38:46.812Z,1.44
2023-06-22T10:39:46.824Z,1.50
2023-06-22T10:40:46.847Z,1.50
2023-06-22T10:41:46.933Z,1.50
2023-06-22T10:42:45.971Z,1.55
2023-06-22T10:43:47.435Z,1.58
2023-06-22T10:44:47.098Z,1.60
2023-06-22T10:45:47.147Z,1.56
2023-06-22T10:46:47.221Z,1.61
2023-06-22T10:47:47.294Z,1.59
2023-06-22T10:48:47.469Z,1.60
2023-06-22T10:49:46.412Z,1.59
2023-06-22T10:50:47.473Z,1.62
2023-06-22T10:51:47.532Z,1.62
2023-06-22T10:52:47.591Z,1.61
2023-06-22T10:53:47.666Z,1.64
2023-06-22T10:54:47.735Z,1.57
2023-06-22T10:55:56.808Z,1.53
2023-06-22T10:56:47.798Z,1.53
2023-06-22T10:57:47.810Z,1.54
2023-06-22T10:58:47.782Z,1.55
2023-06-22T10:59:47.775Z,1.54
2023-06-22T11:00:47.754Z,1.56
2023-06-22T11:01:47.765Z,1.55
2023-06-22T11:02:46.832Z,1.67
2023-06-22T11:03:46.898Z,1.69
2023-06-22T11:04:47.772Z,1.69
2023-06-22T11:05:47.735Z,1.72
2023-06-22T11:06:47.718Z,1.61
2023-06-22T11:07:47.287Z,1.59
2023-06-22T11:08:57.692Z,1.55
2023-06-22T11:09:47.718Z,1.55
2023-06-22T11:10:46.698Z,1.56
2023-06-22T11:11:46.693Z,1.52
2023-06-22T11:12:47.696Z,1.52
2023-06-22T11:13:47.707Z,1.50
2023-06-22T11:14:46.691Z,1.39
2023-06-22T11:15:47.655Z,1.34
2023-06-22T11:16:47.647Z,1.34
2023-06-22T11:17:47.725Z,1.34
2023-06-22T11:18:47.697Z,1.39
2023-06-22T11:19:47.628Z,1.46
2023-06-22T11:20:47.630Z,1.41
2023-06-22T11:21:47.608Z,1.46
2023-06-22T11:22:46.606Z,1.48
2023-06-22T11:23:47.618Z,1.45
2023-06-22T11:24:47.624Z,1.41
2023-06-22T11:25:47.612Z,1.39
2023-06-22T11:26:47.577Z,1.35
2023-06-22T11:27:47.574Z,1.34
2023-06-22T11:28:47.610Z,1.40
2023-06-22T11:29:47.590Z,1.37
2023-06-22T11:30:46.561Z,1.38
2023-06-22T11:31:46.553Z,1.37
2023-06-22T11:32:47.650Z,1.33
2023-06-22T11:33:47.619Z,1.36
2023-06-22T11:34:47.655Z,1.37
2023-06-22T11:35:47.735Z,1.31
2023-06-22T11:36:47.775Z,1.33
2023-06-22T11:37:47.848Z,1.35
2023-06-22T11:38:47.991Z,1.31
2023-06-22T11:39:53.220Z,1.37
2023-06-22T11:40:47.959Z,1.37
2023-06-22T11:41:46.946Z,1.37
2023-06-22T11:42:46.938Z,1.39
2023-06-22T11:43:47.938Z,1.44
2023-06-22T11:44:46.944Z,1.43
2023-06-22T11:45:47.977Z,1.34
2023-06-22T11:46:46.920Z,1.37
2023-06-22T11:47:47.001Z,1.36
2023-06-22T11:48:47.895Z,1.39
2023-06-22T11:49:46.907Z,1.45
2023-06-22T11:50:46.884Z,1.56
2023-06-22T11:51:47.875Z,1.63
2023-06-22T11:52:47.876Z,1.75
2023-06-22T11:53:47.881Z,1.86
2023-06-22T11:54:46.861Z,1.95
2023-06-22T11:55:47.858Z,1.94
2023-06-22T11:56:47.845Z,1.94
2023-06-22T11:57:47.833Z,2.02
2023-06-22T11:58:47.834Z,2.01
2023-06-22T11:59:47.813Z,2.11
2023-06-22T12:00:51.618Z,2.17
2023-06-22T12:01:47.897Z,2.18
2023-06-22T12:02:46.917Z,2.20
2023-06-22T12:03:47.956Z,2.22
2023-06-22T12:04:47.785Z,2.29
2023-06-22T12:05:46.802Z,2.33
2023-06-22T12:06:47.777Z,2.46
2023-06-22T12:07:46.759Z,2.51
2023-06-22T12:08:47.769Z,2.49
2023-06-22T12:09:47.754Z,2.50
2023-06-22T12:10:46.784Z,2.55
2023-06-22T12:11:46.729Z,2.55
2023-06-22T12:12:47.727Z,2.55
2023-06-22T12:13:46.723Z,2.55
2023-06-22T12:14:46.726Z,2.58
2023-06-22T12:15:47.709Z,2.61
2023-06-22T12:16:46.721Z,2.67
2023-06-22T12:17:47.786Z,2.57
2023-06-22T12:18:47.700Z,2.64
2023-06-22T12:19:47.697Z,2.68
2023-06-22T12:20:46.689Z,2.71
2023-06-22T12:21:47.726Z,2.69
2023-06-22T12:22:47.735Z,2.70
2023-06-22T12:23:46.750Z,2.74
2023-06-22T12:24:47.773Z,2.69
2023-06-22T12:25:46.796Z,2.24
2023-06-22T12:26:46.814Z,1.96
2023-06-22T12:27:46.840Z,1.85
2023-06-22T12:28:47.898Z,1.92
2023-06-22T12:29:47.910Z,2.06
2023-06-22T12:30:47.938Z,2.10
2023-06-22T12:31:47.995Z,2.22
2023-06-22T12:32:47.075Z,2.38
2023-06-22T12:33:47.043Z,2.22
2023-06-22T12:34:48.059Z,2.05
2023-06-22T12:35:48.068Z,1.94
2023-06-22T12:36:48.106Z,1.92
2023-06-22T12:37:47.156Z,2.08
2023-06-22T12:38:48.196Z,2.21
2023-06-22T12:39:48.239Z,2.29
2023-06-22T12:40:48.273Z,2.36
2023-06-22T12:41:47.325Z,2.31
2023-06-22T12:42:48.324Z,2.30
2023-06-22T12:43:47.348Z,2.35
2023-06-22T12:44:47.370Z,2.39
2023-06-22T12:45:48.392Z,2.41
2023-06-22T12:46:48.407Z,2.49
2023-06-22T12:47:48.456Z,2.57
2023-06-22T12:48:48.469Z,2.51
2023-06-22T12:49:48.563Z,2.70
2023-06-22T12:50:48.503Z,2.85
2023-06-22T12:51:48.536Z,2.96
2023-06-22T12:52:48.544Z,3.01
2023-06-22T12:53:48.588Z,3.16
2023-06-22T12:54:55.098Z,3.37
2023-06-22T12:55:48.570Z,3.38
2023-06-22T12:56:47.581Z,3.42
2023-06-22T12:57:48.604Z,3.55
2023-06-22T12:58:48.550Z,3.86
2023-06-22T12:59:47.553Z,4.20
2023-06-22T13:00:48.560Z,4.17
2023-06-22T13:01:48.532Z,4.00
2023-06-22T13:02:47.621Z,4.08
2023-06-22T13:03:48.544Z,3.95
2023-06-22T13:04:48.516Z,3.94
2023-06-22T13:05:47.517Z,3.96
2023-06-22T13:06:49.831Z,3.96
2023-06-22T13:07:48.061Z,4.09
2023-06-22T13:09:47.488Z,4.08
2023-06-22T13:10:47.463Z,4.04
2023-06-22T13:11:48.505Z,3.96
2023-06-22T13:12:48.461Z,4.04
2023-06-22T13:13:48.468Z,4.12
2023-06-22T13:14:48.520Z,3.98
2023-06-22T13:15:47.447Z,4.31
2023-06-22T13:16:48.440Z,4.45
2023-06-22T13:17:48.474Z,4.99
2023-06-22T13:18:48.444Z,5.50
2023-06-22T13:19:47.454Z,5.46